Terminal Aerodrome Forecast
Issued by NWS

Home | Current Version | Previous Version | Text Only | Print | Product List | Glossary On
Versions: 1 2 3 4 5 6 7 8 9 10 11 12 13 14 15 16 17 18 19 20
000
FTUS46 KMTR 011737
TAFSNS
TAF
KSNS 011737Z 0118/0218 19003KT P6SM OVC013
     FM011900 28010KT P6SM FEW012
     FM012200 28012G18KT P6SM FEW012
     FM020300 29009KT P6SM BKN009
     FM020500 29006KT P6SM OVC007
     FM021500 27005KT P6SM OVC012=

USA.gov is the U.S. government's official web portal to all federal, state and local government web resources and services.